Time;durP1;ratioP1;P1;durP2;ratioP2;P2;SDS_P1;SDS_P2;PMS_P1;PMS_P2;Temp;Humidity;BMP_temperature;BMP_pressure;BME280_temperature;BME280_humidity;BME280_pressure;Samples;Min_cycle;Max_cycle;Signal;HPM_P1;HPM_P2
2023/05/06 00:00:08;;;;;;;0.00;0.00;;;14.10;95.00;;;;;;5043437;28;20051;-77
2023/05/06 00:02:33;;;;;;;0.25;0.25;;;14.20;94.90;;;;;;5055788;28;20028;-77
2023/05/06 00:04:59;;;;;;;0.17;0.17;;;14.20;94.90;;;;;;5057272;28;20729;-77
2023/05/06 00:07:25;;;;;;;0.10;0.10;;;14.20;94.80;;;;;;5044567;28;20025;-75
2023/05/06 00:09:51;;;;;;;0.10;0.10;;;14.20;94.80;;;;;;5056913;28;20021;-75
2023/05/06 00:12:16;;;;;;;0.30;0.30;;;14.10;95.00;;;;;;5036664;28;20032;-76
2023/05/06 00:14:42;;;;;;;0.13;0.13;;;14.20;94.80;;;;;;5038368;28;20147;-75
2023/05/06 00:17:08;;;;;;;1.25;0.63;;;14.10;94.90;;;;;;5061200;28;21217;-76
2023/05/06 00:19:33;;;;;;;0.10;0.10;;;14.10;94.90;;;;;;5068903;28;20059;-78
2023/05/06 00:21:59;;;;;;;0.10;0.10;;;14.00;95.20;;;;;;5057226;28;20060;-77
2023/05/06 00:24:25;;;;;;;0.70;0.63;;;14.00;95.20;;;;;;5060735;28;20029;-78
2023/05/06 00:26:52;;;;;;;0.10;0.10;;;14.00;95.40;;;;;;5058886;28;20472;-77
2023/05/06 00:29:17;;;;;;;;;;;13.90;95.70;;;;;;5051869;28;20821;-79
2023/05/06 00:31:44;;;;;;;0.10;0.10;;;13.80;95.80;;;;;;5054341;28;20030;-78
2023/05/06 00:34:09;;;;;;;0.85;0.35;;;13.80;96.00;;;;;;5055243;28;20020;-79
2023/05/06 00:36:36;;;;;;;0.70;0.40;;;13.70;96.30;;;;;;5056024;28;20050;-77
2023/05/06 00:39:02;;;;;;;0.10;0.10;;;13.70;96.40;;;;;;5031546;28;20029;-79
2023/05/06 00:41:32;;;;;;;0.28;0.28;;;13.60;96.40;;;;;;5055290;28;20075;-79
2023/05/06 00:43:58;;;;;;;0.10;0.10;;;13.70;96.40;;;;;;5031219;28;20040;-81
2023/05/06 00:46:23;;;;;;;0.00;0.00;;;13.70;96.50;;;;;;5061721;28;20520;-79
2023/05/06 00:48:50;;;;;;;0.10;0.10;;;13.70;96.40;;;;;;5041889;28;20024;-79
2023/05/06 00:51:16;;;;;;;0.10;0.10;;;13.60;96.60;;;;;;5057118;28;20032;-79
2023/05/06 00:53:45;;;;;;;0.20;0.20;;;13.50;97.10;;;;;;5043967;28;20079;-79
2023/05/06 00:56:11;;;;;;;0.10;0.10;;;13.50;97.20;;;;;;5064837;28;20399;-78
2023/05/06 00:58:37;;;;;;;0.10;0.10;;;13.50;97.50;;;;;;5063297;28;20109;-78
2023/05/06 01:01:03;;;;;;;0.10;0.10;;;13.40;97.80;;;;;;5057467;28;20500;-78
2023/05/06 01:03:28;;;;;;;0.10;0.10;;;13.40;97.80;;;;;;5062900;28;20021;-78
2023/05/06 01:06:11;;;;;;;0.17;0.17;;;13.40;97.90;;;;;;5063524;28;20029;-78
2023/05/06 01:09:01;;;;;;;0.00;0.00;;;13.30;98.10;;;;;;5035166;28;20060;-79
2023/05/06 01:11:48;;;;;;;0.52;0.52;;;13.20;98.50;;;;;;5044530;28;20482;-79
2023/05/06 01:14:32;;;;;;;0.10;0.10;;;13.30;98.60;;;;;;5058114;28;20063;-79
2023/05/06 01:17:07;;;;;;;0.20;0.20;;;13.20;98.70;;;;;;5060284;28;20043;-78
2023/05/06 01:19:37;;;;;;;0.30;0.30;;;13.20;98.90;;;;;;5061007;28;20052;-78
2023/05/06 01:22:05;;;;;;;0.73;0.73;;;13.10;99.10;;;;;;5053887;28;20028;-77
2023/05/06 01:24:42;;;;;;;0.25;0.20;;;13.00;99.50;;;;;;5060523;28;20484;-78
2023/05/06 01:27:08;;;;;;;0.20;0.20;;;13.10;99.60;;;;;;5058143;28;20133;-78
2023/05/06 01:29:37;;;;;;;0.15;0.15;;;13.00;99.60;;;;;;5037267;28;20040;-78
2023/05/06 01:32:17;;;;;;;0.10;0.10;;;13.00;99.70;;;;;;5056157;28;20072;-79
2023/05/06 01:34:52;;;;;;;0.10;0.10;;;13.00;99.80;;;;;;5037003;28;20029;-79
2023/05/06 01:38:00;;;;;;;0.00;0.00;;;13.00;99.90;;;;;;5057680;28;20039;-79
2023/05/06 01:40:29;;;;;;;0.10;0.10;;;12.90;99.90;;;;;;5058004;28;20104;-78
2023/05/06 01:42:56;;;;;;;0.38;0.30;;;13.00;99.90;;;;;;5053185;28;20449;-79
2023/05/06 01:45:24;;;;;;;;;;;12.90;99.90;;;;;;5061595;28;20025;-79
2023/05/06 01:47:50;;;;;;;0.10;0.10;;;12.80;99.90;;;;;;5063044;28;20424;-79
2023/05/06 01:50:16;;;;;;;3.72;0.93;;;12.80;99.90;;;;;;5061705;28;20021;-78
2023/05/06 01:52:41;;;;;;;0.25;0.25;;;12.70;99.90;;;;;;5062737;28;20082;-77
2023/05/06 01:55:08;;;;;;;0.32;0.32;;;12.70;99.90;;;;;;5060080;28;20648;-80
2023/05/06 01:57:33;;;;;;;0.20;0.20;;;12.70;99.90;;;;;;5061143;28;20089;-80
2023/05/06 01:59:59;;;;;;;0.33;0.20;;;12.60;99.90;;;;;;5062464;28;20555;-81
2023/05/06 02:02:25;;;;;;;0.20;0.20;;;12.60;99.90;;;;;;5040065;28;20459;-79
2023/05/06 02:04:52;;;;;;;0.20;0.20;;;12.70;99.90;;;;;;5061474;28;20025;-83
2023/05/06 02:07:18;;;;;;;0.60;0.55;;;12.60;99.90;;;;;;5055331;28;20206;-81
2023/05/06 02:09:43;;;;;;;0.52;0.52;;;12.60;99.90;;;;;;5069348;28;20139;-78
2023/05/06 02:12:09;;;;;;;0.20;0.20;;;12.60;99.90;;;;;;5056377;28;20124;-80
2023/05/06 02:14:35;;;;;;;0.00;0.00;;;12.60;99.90;;;;;;5058014;28;20025;-79
2023/05/06 02:17:04;;;;;;;0.22;0.22;;;12.60;99.90;;;;;;5052597;28;20040;-81
2023/05/06 02:19:30;;;;;;;0.20;0.20;;;12.50;99.90;;;;;;5040992;28;20698;-79
2023/05/06 02:21:56;;;;;;;0.80;0.80;;;12.50;99.90;;;;;;5042417;28;20026;-79
2023/05/06 02:24:22;;;;;;;0.20;0.20;;;12.40;99.90;;;;;;5040203;28;20039;-80
2023/05/06 02:26:48;;;;;;;0.20;0.20;;;12.30;99.90;;;;;;5055382;28;20036;-80
2023/05/06 02:29:13;;;;;;;0.10;0.10;;;12.40;99.90;;;;;;5035959;28;20028;-79
2023/05/06 02:31:39;;;;;;;0.50;0.50;;;12.40;99.90;;;;;;5052851;28;20040;-78
2023/05/06 02:34:05;;;;;;;0.10;0.10;;;12.40;99.90;;;;;;5038712;28;20123;-79
2023/05/06 02:36:32;;;;;;;0.10;0.10;;;12.40;99.90;;;;;;5059687;28;20395;-77
2023/05/06 02:38:57;;;;;;;0.10;0.10;;;12.40;99.90;;;;;;5047260;28;20033;-80
2023/05/06 02:41:23;;;;;;;0.20;0.20;;;12.40;99.90;;;;;;5049858;28;20486;-77
2023/05/06 02:43:49;;;;;;;0.17;0.17;;;12.40;99.90;;;;;;5058949;28;20024;-78
2023/05/06 02:46:14;;;;;;;0.10;0.10;;;12.40;99.90;;;;;;5036770;28;20055;-79
2023/05/06 02:48:40;;;;;;;0.55;0.55;;;12.30;99.90;;;;;;5042336;28;20136;-80
2023/05/06 02:51:06;;;;;;;0.10;0.10;;;12.20;99.90;;;;;;5044492;28;20032;-78
2023/05/06 02:53:32;;;;;;;0.10;0.10;;;12.10;99.90;;;;;;5048456;28;20037;-77
2023/05/06 02:55:57;;;;;;;0.20;0.20;;;12.10;99.90;;;;;;5060530;28;20071;-78
2023/05/06 02:58:25;;;;;;;0.10;0.10;;;12.10;99.90;;;;;;5063566;28;20051;-77
2023/05/06 03:00:50;;;;;;;0.25;0.25;;;12.00;99.90;;;;;;5040395;28;20028;-79
2023/05/06 03:03:16;;;;;;;2.10;0.80;;;12.00;99.90;;;;;;5056327;28;20033;-76
2023/05/06 03:05:42;;;;;;;0.10;0.10;;;12.00;99.90;;;;;;5062035;28;20517;-78
2023/05/06 03:08:08;;;;;;;1.25;1.15;;;12.00;99.90;;;;;;5051948;28;20028;-78
2023/05/06 03:10:34;;;;;;;0.20;0.20;;;11.90;99.90;;;;;;5058387;28;20036;-77
2023/05/06 03:12:59;;;;;;;0.20;0.20;;;11.90;99.90;;;;;;5057745;28;20179;-77
2023/05/06 03:15:26;;;;;;;0.10;0.10;;;12.00;99.90;;;;;;5062485;28;20025;-77
2023/05/06 03:17:51;;;;;;;0.10;0.10;;;12.00;99.90;;;;;;5059075;28;20020;-78
2023/05/06 03:20:17;;;;;;;0.22;0.22;;;11.90;99.90;;;;;;5044940;28;20036;-80
2023/05/06 03:22:43;;;;;;;0.10;0.10;;;11.90;99.90;;;;;;5058810;28;20025;-78
2023/05/06 03:25:09;;;;;;;1.17;0.65;;;11.90;99.90;;;;;;5044027;28;20038;-78
2023/05/06 03:27:35;;;;;;;1.48;0.70;;;11.80;99.90;;;;;;5062013;28;20029;-77
2023/05/06 03:30:00;;;;;;;0.30;0.30;;;11.70;99.90;;;;;;5068676;28;20035;-78
2023/05/06 03:32:26;;;;;;;1.08;1.08;;;11.70;99.90;;;;;;5062112;28;20036;-77
2023/05/06 03:34:52;;;;;;;0.30;0.30;;;11.70;99.90;;;;;;5062065;28;20032;-78
2023/05/06 03:37:17;;;;;;;0.35;0.35;;;11.60;99.90;;;;;;5061007;28;20542;-79
2023/05/06 03:39:43;;;;;;;0.73;0.73;;;11.60;99.90;;;;;;5053337;28;20035;-78
2023/05/06 03:42:09;;;;;;;0.10;0.10;;;11.70;99.90;;;;;;5048250;28;20086;-78
2023/05/06 03:44:35;;;;;;;0.88;0.88;;;11.70;99.90;;;;;;5056443;28;20098;-76
2023/05/06 03:47:01;;;;;;;0.17;0.17;;;11.60;99.90;;;;;;5061980;28;20028;-77
2023/05/06 03:49:26;;;;;;;0.10;0.10;;;11.60;99.90;;;;;;5060009;28;20029;-76
2023/05/06 03:51:52;;;;;;;0.45;0.45;;;11.60;99.90;;;;;;5033224;28;20108;-77
2023/05/06 03:54:18;;;;;;;0.98;0.75;;;11.50;99.90;;;;;;5063354;28;20056;-78
2023/05/06 03:56:43;;;;;;;0.45;0.45;;;11.60;99.90;;;;;;5045095;28;20558;-77
2023/05/06 03:59:09;;;;;;;0.20;0.20;;;11.60;99.90;;;;;;5045086;28;20053;-77
2023/05/06 04:01:35;;;;;;;0.10;0.10;;;11.50;99.90;;;;;;5041044;28;20043;-77
2023/05/06 04:04:00;;;;;;;0.20;0.20;;;11.50;99.90;;;;;;5046465;28;20024;-79
2023/05/06 04:06:26;;;;;;;0.25;0.25;;;11.50;99.90;;;;;;5064694;28;20025;-79
2023/05/06 04:08:52;;;;;;;0.10;0.10;;;11.50;99.90;;;;;;5054854;28;20039;-79
2023/05/06 04:11:17;;;;;;;0.55;0.40;;;11.50;99.90;;;;;;5054005;28;20467;-78
2023/05/06 04:13:43;;;;;;;0.38;0.38;;;11.40;99.90;;;;;;5064872;28;20127;-78
2023/05/06 04:16:09;;;;;;;2.22;0.73;;;11.40;99.90;;;;;;5059503;28;20108;-77
2023/05/06 04:18:35;;;;;;;0.10;0.10;;;11.40;99.90;;;;;;5061916;28;20510;-77
2023/05/06 04:21:00;;;;;;;0.32;0.32;;;11.40;99.90;;;;;;5061929;28;20079;-79
2023/05/06 04:23:26;;;;;;;0.20;0.20;;;11.30;99.90;;;;;;5061366;28;20604;-78
2023/05/06 04:25:52;;;;;;;2.10;1.65;;;11.30;99.90;;;;;;5039661;28;20028;-80
2023/05/06 04:28:17;;;;;;;0.10;0.10;;;11.30;99.90;;;;;;5054329;28;20028;-78
2023/05/06 04:30:44;;;;;;;0.88;0.55;;;11.30;99.90;;;;;;5036387;28;20171;-77
2023/05/06 04:33:10;;;;;;;0.63;0.60;;;11.20;99.90;;;;;;5054040;28;20578;-78
2023/05/06 04:35:36;;;;;;;0.25;0.25;;;11.20;99.90;;;;;;5053729;28;20980;-77
2023/05/06 04:38:02;;;;;;;0.10;0.10;;;11.20;99.90;;;;;;5052514;28;20112;-78
2023/05/06 04:40:28;;;;;;;0.15;0.15;;;11.20;99.90;;;;;;5052531;28;20479;-77
2023/05/06 04:42:54;;;;;;;0.10;0.10;;;11.30;99.90;;;;;;5051358;28;20028;-77
2023/05/06 04:45:21;;;;;;;0.30;0.30;;;11.30;99.90;;;;;;5052684;28;20017;-76
2023/05/06 04:47:47;;;;;;;0.15;0.15;;;11.30;99.90;;;;;;5064692;28;20093;-78
2023/05/06 04:50:13;;;;;;;0.23;0.23;;;11.30;99.90;;;;;;5063303;28;20087;-77
2023/05/06 04:52:38;;;;;;;0.13;0.13;;;11.40;99.90;;;;;;5063139;28;20037;-78
2023/05/06 04:55:05;;;;;;;0.15;0.15;;;11.50;99.90;;;;;;5048754;28;20032;-78
2023/05/06 04:57:30;;;;;;;0.20;0.20;;;11.60;99.90;;;;;;5062103;28;20028;-77
2023/05/06 04:59:56;;;;;;;0.20;0.20;;;11.70;99.90;;;;;;5062238;28;20052;-77
2023/05/06 05:02:22;;;;;;;0.38;0.38;;;11.70;99.90;;;;;;5057462;28;20086;-79
2023/05/06 05:04:48;;;;;;;0.32;0.32;;;11.80;99.90;;;;;;5053997;28;20036;-79
2023/05/06 05:07:14;;;;;;;0.38;0.38;;;11.90;99.90;;;;;;5048225;28;20096;-78
2023/05/06 05:09:39;;;;;;;0.13;0.13;;;12.00;99.90;;;;;;5041663;28;20032;-78
2023/05/06 05:12:05;;;;;;;0.20;0.20;;;12.20;99.90;;;;;;5037692;28;20043;-78
2023/05/06 05:14:31;;;;;;;0.27;0.27;;;12.70;99.90;;;;;;5052122;28;20107;-77
2023/05/06 05:16:56;;;;;;;0.10;0.10;;;13.10;99.90;;;;;;5043340;28;20024;-80
2023/05/06 05:19:22;;;;;;;3.03;0.43;;;13.40;99.90;;;;;;5058874;28;20029;-78
2023/05/06 05:21:48;;;;;;;0.10;0.10;;;13.50;99.90;;;;;;5061338;28;20488;-78
2023/05/06 05:24:14;;;;;;;0.30;0.30;;;13.90;99.90;;;;;;5056692;28;20033;-79
2023/05/06 05:26:40;;;;;;;0.00;0.00;;;14.20;98.40;;;;;;5057479;28;20074;-77
2023/05/06 05:29:06;;;;;;;2.80;0.60;;;14.50;97.90;;;;;;5052825;28;20029;-77
2023/05/06 05:31:32;;;;;;;0.13;0.13;;;14.90;96.80;;;;;;5053677;28;20051;-79
2023/05/06 05:33:58;;;;;;;0.20;0.20;;;15.40;95.80;;;;;;5051457;28;20028;-79
2023/05/06 05:36:25;;;;;;;0.10;0.10;;;15.50;95.20;;;;;;5057033;28;20021;-78
2023/05/06 05:38:50;;;;;;;0.45;0.40;;;16.20;93.80;;;;;;5050653;28;20090;-78
2023/05/06 05:41:16;;;;;;;0.57;0.57;;;16.50;92.30;;;;;;5051743;28;20040;-78
2023/05/06 05:43:42;;;;;;;0.10;0.10;;;16.70;91.90;;;;;;5046035;28;20074;-80
2023/05/06 05:46:07;;;;;;;0.10;0.10;;;16.90;91.40;;;;;;5054372;28;20079;-78
2023/05/06 05:48:33;;;;;;;0.10;0.10;;;17.40;89.50;;;;;;5061622;28;20100;-78
2023/05/06 05:51:02;;;;;;;0.10;0.10;;;17.60;88.70;;;;;;5062467;28;20033;-78
2023/05/06 05:53:28;;;;;;;0.20;0.20;;;17.10;89.80;;;;;;5060138;28;20499;-78
2023/05/06 05:55:53;;;;;;;0.00;0.00;;;16.80;90.40;;;;;;5061522;28;20507;-78
2023/05/06 05:58:19;;;;;;;0.53;0.53;;;16.30;91.10;;;;;;5060953;28;20044;-77
2023/05/06 06:00:45;;;;;;;0.10;0.10;;;16.10;92.10;;;;;;5060618;28;20036;-78
2023/05/06 06:03:11;;;;;;;0.10;0.10;;;16.60;90.80;;;;;;5059366;28;20043;-79
2023/05/06 06:05:36;;;;;;;0.00;0.00;;;15.70;91.90;;;;;;5054212;28;20033;-79
2023/05/06 06:08:02;;;;;;;0.00;0.00;;;15.10;93.40;;;;;;5051277;28;20484;-79
2023/05/06 06:10:28;;;;;;;0.22;0.22;;;15.10;94.00;;;;;;5040532;28;20029;-79
2023/05/06 06:12:54;;;;;;;0.10;0.10;;;14.90;94.00;;;;;;5039742;28;20079;-78
2023/05/06 06:15:21;;;;;;;0.10;0.10;;;15.50;93.20;;;;;;5062668;28;20031;-78
2023/05/06 06:17:46;;;;;;;;;;;16.30;91.70;;;;;;5060344;28;20120;-76
2023/05/06 06:20:12;;;;;;;0.00;0.00;;;16.70;90.50;;;;;;5059880;28;20011;-78
2023/05/06 06:22:38;;;;;;;0.00;0.00;;;18.00;86.90;;;;;;5058684;28;20037;-76
2023/05/06 06:25:04;;;;;;;0.00;0.00;;;18.90;83.50;;;;;;5061609;28;20665;-77
2023/05/06 06:27:34;;;;;;;0.15;0.15;;;19.40;79.10;;;;;;5046513;28;20025;-75
2023/05/06 06:30:00;;;;;;;0.20;0.20;;;18.60;81.00;;;;;;5061681;28;20024;-76
2023/05/06 06:32:26;;;;;;;0.00;0.00;;;19.20;80.00;;;;;;5049795;28;20560;-75
2023/05/06 06:34:51;;;;;;;0.40;0.33;;;19.70;77.10;;;;;;5053041;28;20020;-76
2023/05/06 06:37:17;;;;;;;0.10;0.10;;;18.80;81.10;;;;;;5047904;28;20036;-77
2023/05/06 06:39:43;;;;;;;0.00;0.00;;;19.30;78.60;;;;;;5051010;28;20069;-79
2023/05/06 06:42:08;;;;;;;0.00;0.00;;;20.10;76.90;;;;;;5057191;28;20118;-78
2023/05/06 06:44:34;;;;;;;0.00;0.00;;;20.30;75.80;;;;;;5053355;28;20024;-76
2023/05/06 06:47:00;;;;;;;0.70;0.70;;;19.10;79.00;;;;;;5061160;28;20024;-76
2023/05/06 06:49:26;;;;;;;0.30;0.23;;;19.80;77.60;;;;;;5054073;28;20664;-75
2023/05/06 06:51:52;;;;;;;0.17;0.17;;;19.90;75.70;;;;;;5049327;28;20341;-75
2023/05/06 06:54:18;;;;;;;0.00;0.00;;;19.30;76.30;;;;;;5061617;28;20028;-75
2023/05/06 06:56:43;;;;;;;0.00;0.00;;;20.00;76.40;;;;;;5061700;28;20039;-76
2023/05/06 06:59:09;;;;;;;0.00;0.00;;;20.30;75.10;;;;;;5059086;28;20053;-76
2023/05/06 07:01:35;;;;;;;0.00;0.00;;;20.30;74.20;;;;;;5056577;28;20028;-75
2023/05/06 07:04:01;;;;;;;0.20;0.20;;;20.70;71.80;;;;;;5055697;28;20900;-75
2023/05/06 07:06:26;;;;;;;0.00;0.00;;;20.90;72.10;;;;;;5041985;28;20604;-76
2023/05/06 07:08:52;;;;;;;0.00;0.00;;;21.30;72.40;;;;;;5050375;28;20507;-76
2023/05/06 07:11:18;;;;;;;0.00;0.00;;;22.10;66.90;;;;;;5053218;28;20657;-76
2023/05/06 07:13:43;;;;;;;0.00;0.00;;;22.10;69.30;;;;;;5051558;28;20281;-76
2023/05/06 07:16:09;;;;;;;0.37;0.37;;;21.90;69.80;;;;;;5061619;28;20111;-74
2023/05/06 07:18:35;;;;;;;0.00;0.00;;;22.90;67.40;;;;;;5037137;28;20507;-75
2023/05/06 07:21:01;;;;;;;0.43;0.43;;;22.90;65.50;;;;;;5061302;28;20028;-74
2023/05/06 07:23:27;;;;;;;0.10;0.10;;;22.00;66.30;;;;;;5060690;28;20028;-76
2023/05/06 07:25:52;;;;;;;0.10;0.10;;;22.90;65.30;;;;;;5054741;28;20552;-76
2023/05/06 07:28:18;;;;;;;0.00;0.00;;;24.10;61.10;;;;;;5059996;28;20036;-75
2023/05/06 07:30:44;;;;;;;0.00;0.00;;;24.80;60.30;;;;;;5053895;28;20270;-76
2023/05/06 07:33:10;;;;;;;0.03;0.03;;;24.90;60.80;;;;;;5053239;28;20044;-75
2023/05/06 07:35:36;;;;;;;0.00;0.00;;;25.20;58.30;;;;;;5057854;28;20574;-76
2023/05/06 07:38:01;;;;;;;0.20;0.20;;;25.50;59.30;;;;;;5050510;28;20057;-75
2023/05/06 07:40:27;;;;;;;0.00;0.00;;;26.20;56.70;;;;;;5052406;28;20686;-76
2023/05/06 07:42:53;;;;;;;0.05;0.05;;;25.50;57.60;;;;;;5055768;28;20033;-76
2023/05/06 07:45:22;;;;;;;0.10;0.10;;;25.30;57.40;;;;;;5051833;28;20027;-75
2023/05/06 07:47:47;;;;;;;0.00;0.00;;;26.00;56.50;;;;;;5060034;28;20033;-77
2023/05/06 07:50:13;;;;;;;0.38;0.38;;;25.00;58.60;;;;;;5059589;28;20033;-77
2023/05/06 07:52:39;;;;;;;0.00;0.00;;;26.10;57.30;;;;;;5039956;28;20052;-77
2023/05/06 07:55:07;;;;;;;0.20;0.20;;;26.80;55.30;;;;;;5056678;28;20060;-76
2023/05/06 07:57:33;;;;;;;0.10;0.10;;;26.60;56.00;;;;;;5061498;28;20116;-75
2023/05/06 07:59:58;;;;;;;0.00;0.00;;;27.30;55.90;;;;;;5058833;28;20584;-73
2023/05/06 08:02:25;;;;;;;0.05;0.05;;;27.20;54.50;;;;;;5052893;28;20056;-80
2023/05/06 08:04:51;;;;;;;0.10;0.10;;;27.30;53.30;;;;;;5035958;28;20614;-75
2023/05/06 08:07:17;;;;;;;;;;;28.00;53.60;;;;;;5041970;28;20029;-77
2023/05/06 08:09:43;;;;;;;0.20;0.20;;;28.50;51.10;;;;;;5058544;28;19923;-78
2023/05/06 08:12:09;;;;;;;0.25;0.22;;;29.00;50.20;;;;;;5051524;28;20036;-76
2023/05/06 08:14:35;;;;;;;0.00;0.00;;;28.80;51.20;;;;;;5047440;28;20552;-78
2023/05/06 08:17:01;;;;;;;0.38;0.30;;;28.80;53.20;;;;;;5055237;28;20032;-77
2023/05/06 08:19:27;;;;;;;0.00;0.00;;;29.70;50.60;;;;;;5054863;28;21254;-79
2023/05/06 08:21:52;;;;;;;0.00;0.00;;;28.90;51.60;;;;;;5050654;28;20203;-78
2023/05/06 08:24:18;;;;;;;;;;;29.10;51.60;;;;;;5060482;28;20108;-76
2023/05/06 08:26:44;;;;;;;0.00;0.00;;;28.80;49.70;;;;;;5055535;28;19916;-78
2023/05/06 08:29:10;;;;;;;;;;;30.10;50.60;;;;;;5061540;28;20025;-76
2023/05/06 08:31:35;;;;;;;0.35;0.35;;;30.20;51.10;;;;;;5061492;28;19912;-75
2023/05/06 08:34:01;;;;;;;;;;;30.70;50.70;;;;;;5059873;28;20052;-78
2023/05/06 08:36:26;;;;;;;0.00;0.00;;;29.80;51.60;;;;;;5057505;28;19920;-76
2023/05/06 08:38:52;;;;;;;;;;;30.10;49.90;;;;;;5031993;28;20050;-76
2023/05/06 08:41:20;;;;;;;0.98;0.55;;;30.60;49.40;;;;;;5048766;28;19960;-76
2023/05/06 08:43:47;;;;;;;0.05;0.05;;;29.60;49.90;;;;;;5048831;28;20029;-75
2023/05/06 08:46:13;;;;;;;0.00;0.00;;;29.40;49.80;;;;;;5056490;28;20507;-74
2023/05/06 08:48:39;;;;;;;;;;;30.60;51.00;;;;;;5054265;28;20551;-76
2023/05/06 08:51:07;;;;;;;0.03;0.03;;;31.20;49.00;;;;;;5048107;28;19976;-75
2023/05/06 08:53:33;;;;;;;0.20;0.20;;;32.20;49.30;;;;;;5061233;28;20020;-76
2023/05/06 08:56:06;;;;;;;0.00;0.00;;;32.90;46.90;;;;;;5061492;28;20036;-76
2023/05/06 08:58:37;;;;;;;0.03;0.03;;;33.10;46.20;;;;;;5057952;28;20140;-76
2023/05/06 09:01:03;;;;;;;0.03;0.03;;;31.80;47.50;;;;;;5049554;28;20025;-75
2023/05/06 09:03:29;;;;;;;0.00;0.00;;;31.80;47.60;;;;;;5063168;28;20406;-75
2023/05/06 09:05:58;;;;;;;0.13;0.13;;;32.30;47.40;;;;;;5063583;28;20566;-75
2023/05/06 09:08:23;;;;;;;0.15;0.15;;;32.30;45.20;;;;;;5061163;28;20455;-75
2023/05/06 09:10:49;;;;;;;0.00;0.00;;;33.30;46.90;;;;;;5055910;28;20100;-75
2023/05/06 09:13:16;;;;;;;0.15;0.15;;;32.20;47.10;;;;;;5058118;28;20044;-74
2023/05/06 09:15:47;;;;;;;0.00;0.00;;;32.60;47.20;;;;;;5053227;28;20025;-77
2023/05/06 09:18:14;;;;;;;0.88;0.40;;;32.80;46.00;;;;;;5056870;28;20108;-74
2023/05/06 09:20:43;;;;;;;0.00;0.00;;;32.40;45.70;;;;;;5058901;28;20126;-78
2023/05/06 09:23:10;;;;;;;0.00;0.00;;;32.90;45.70;;;;;;5054947;28;20048;-75
2023/05/06 09:25:36;;;;;;;0.00;0.00;;;32.90;45.30;;;;;;5039182;28;20024;-75
2023/05/06 09:28:07;;;;;;;0.00;0.00;;;33.30;44.40;;;;;;5034295;28;20411;-76
2023/05/06 09:30:36;;;;;;;0.22;0.22;;;33.00;44.40;;;;;;5054459;28;20017;-76
2023/05/06 09:33:03;;;;;;;0.25;0.25;;;32.80;44.30;;;;;;5035429;28;20135;-81
2023/05/06 09:35:38;;;;;;;0.10;0.10;;;32.90;45.00;;;;;;5050387;28;20087;-78
2023/05/06 09:38:04;;;;;;;0.23;0.23;;;32.50;46.40;;;;;;5048590;28;20492;-78
2023/05/06 09:40:30;;;;;;;;;;;33.40;45.60;;;;;;5057089;28;21125;-76
2023/05/06 09:42:56;;;;;;;0.17;0.17;;;33.10;44.70;;;;;;5051879;28;19908;-76
2023/05/06 09:45:23;;;;;;;0.05;0.05;;;33.80;44.90;;;;;;5049662;28;20143;-77
2023/05/06 09:47:52;;;;;;;0.00;0.00;;;34.90;46.20;;;;;;5061828;28;20065;-77
2023/05/06 09:50:20;;;;;;;0.00;0.00;;;33.80;42.60;;;;;;5032128;28;20175;-76
2023/05/06 09:52:47;;;;;;;1.75;0.63;;;34.40;45.40;;;;;;5061145;28;20060;-77
2023/05/06 09:55:13;;;;;;;0.00;0.00;;;36.40;45.80;;;;;;5061809;28;20156;-77
2023/05/06 09:57:40;;;;;;;0.00;0.00;;;35.90;44.70;;;;;;5060177;28;20505;-76
2023/05/06 10:00:08;;;;;;;0.05;0.05;;;36.60;43.10;;;;;;5059748;28;20024;-75
2023/05/06 10:02:35;;;;;;;0.00;0.00;;;36.40;42.50;;;;;;5057576;28;20036;-75
2023/05/06 10:05:07;;;;;;;0.00;0.00;;;35.00;42.80;;;;;;5062082;28;20767;-77
2023/05/06 10:07:34;;;;;;;1.45;0.30;;;35.70;44.60;;;;;;5053726;28;20099;-76
2023/05/06 10:10:01;;;;;;;0.00;0.00;;;34.80;42.70;;;;;;5040571;28;20044;-76
2023/05/06 10:12:28;;;;;;;0.08;0.08;;;35.00;43.00;;;;;;5054249;28;20028;-77
2023/05/06 10:14:54;;;;;;;1.08;0.40;;;35.20;42.00;;;;;;5054206;28;20028;-77
2023/05/06 10:17:22;;;;;;;;;;;36.00;43.80;;;;;;5060105;28;20103;-78
2023/05/06 10:19:51;;;;;;;0.00;0.00;;;36.00;43.40;;;;;;5057713;28;19991;-76
2023/05/06 10:22:35;;;;;;;0.00;0.00;;;34.30;44.60;;;;;;5058774;28;20017;-75
2023/05/06 10:25:27;;;;;;;3.20;0.57;;;35.00;44.60;;;;;;5055449;28;20028;-76
2023/05/06 10:27:52;;;;;;;0.25;0.25;;;31.80;44.10;;;;;;5047882;28;20072;-78
2023/05/06 10:30:19;;;;;;;0.03;0.03;;;29.80;45.70;;;;;;5047704;28;20554;-75
2023/05/06 10:32:45;;;;;;;0.00;0.00;;;30.30;50.70;;;;;;5045172;28;20107;-77
2023/05/06 10:35:29;;;;;;;;;;;30.70;53.80;;;;;;5035681;28;20029;-76
2023/05/06 10:37:55;;;;;;;0.00;0.00;;;30.00;50.60;;;;;;5053279;28;19909;-78
2023/05/06 10:40:22;;;;;;;0.10;0.10;;;29.90;48.50;;;;;;5048426;28;20073;-76
2023/05/06 10:42:48;;;;;;;0.00;0.00;;;29.20;50.20;;;;;;5060248;28;20884;-75
2023/05/06 10:45:15;;;;;;;0.10;0.10;;;28.70;50.50;;;;;;5046660;28;20107;-77
2023/05/06 10:47:56;;;;;;;0.03;0.03;;;28.60;50.40;;;;;;5061181;28;20020;-77
2023/05/06 10:50:24;;;;;;;0.10;0.10;;;28.50;53.10;;;;;;5059351;28;20811;-77
2023/05/06 10:52:51;;;;;;;0.03;0.03;;;28.50;52.40;;;;;;5039820;28;20040;-76
2023/05/06 10:55:35;;;;;;;0.03;0.03;;;28.60;54.80;;;;;;5058469;28;20120;-77
2023/05/06 10:58:10;;;;;;;0.00;0.00;;;28.90;52.00;;;;;;5054831;28;20049;-76
2023/05/06 11:00:36;;;;;;;0.30;0.30;;;28.50;51.90;;;;;;5060134;28;20067;-76
2023/05/06 11:03:05;;;;;;;0.00;0.00;;;27.80;51.80;;;;;;5055621;28;20068;-77
2023/05/06 11:05:34;;;;;;;0.40;0.30;;;28.10;49.70;;;;;;5059762;28;20464;-76
2023/05/06 11:08:09;;;;;;;0.15;0.15;;;28.40;49.60;;;;;;5030907;28;20110;-78
2023/05/06 11:10:36;;;;;;;0.00;0.00;;;28.30;51.00;;;;;;5027714;28;20028;-76
2023/05/06 11:13:21;;;;;;;0.00;0.00;;;28.00;51.40;;;;;;5055861;28;20041;-76
2023/05/06 11:15:50;;;;;;;0.00;0.00;;;28.40;50.90;;;;;;5057301;28;20077;-77
2023/05/06 11:18:25;;;;;;;0.08;0.08;;;28.60;49.80;;;;;;5054498;28;20713;-76
2023/05/06 11:21:14;;;;;;;0.32;0.32;;;28.20;52.00;;;;;;5055158;28;20031;-76
2023/05/06 11:23:48;;;;;;;0.10;0.10;;;27.80;52.00;;;;;;5048806;28;20067;-76
2023/05/06 11:26:14;;;;;;;0.47;0.47;;;27.90;52.10;;;;;;5047268;28;20277;-78
2023/05/06 11:28:46;;;;;;;0.05;0.05;;;28.50;50.80;;;;;;5058372;28;20031;-76
2023/05/06 11:31:13;;;;;;;0.70;0.52;;;28.10;48.40;;;;;;5050776;28;20104;-76
2023/05/06 11:33:48;;;;;;;0.00;0.00;;;28.20;50.50;;;;;;5042196;28;20226;-79
2023/05/06 11:36:15;;;;;;;0.00;0.00;;;28.20;52.50;;;;;;5057314;28;20509;-76
2023/05/06 11:38:50;;;;;;;0.08;0.08;;;28.30;50.90;;;;;;5052249;28;20077;-76
2023/05/06 11:41:16;;;;;;;0.00;0.00;;;28.20;55.50;;;;;;5050140;28;20028;-78
2023/05/06 11:43:51;;;;;;;0.10;0.05;;;27.80;54.30;;;;;;5058434;28;20646;-76
2023/05/06 11:46:21;;;;;;;0.00;0.00;;;27.50;53.50;;;;;;5036160;28;20036;-75
2023/05/06 11:48:47;;;;;;;0.10;0.00;;;27.30;51.90;;;;;;5043743;28;20051;-76
2023/05/06 11:51:13;;;;;;;0.00;0.00;;;27.40;57.40;;;;;;5067268;28;20451;-76
2023/05/06 11:53:39;;;;;;;0.10;0.10;;;27.60;58.40;;;;;;5057082;28;20033;-77
2023/05/06 11:56:05;;;;;;;0.28;0.10;;;27.70;57.50;;;;;;5059641;28;20112;-77
2023/05/06 11:58:31;;;;;;;0.25;0.25;;;27.70;55.80;;;;;;5058576;28;20087;-76
2023/05/06 12:01:02;;;;;;;1.08;0.40;;;27.60;55.60;;;;;;5057303;28;20033;-76
2023/05/06 12:03:30;;;;;;;0.52;0.43;;;27.60;56.70;;;;;;5060220;28;20028;-77
2023/05/06 12:05:56;;;;;;;0.20;0.20;;;27.50;56.90;;;;;;5060750;28;20020;-75
2023/05/06 12:08:28;;;;;;;0.20;0.20;;;27.00;54.00;;;;;;5050601;28;20642;-76
2023/05/06 12:10:58;;;;;;;0.10;0.10;;;26.80;56.90;;;;;;5034544;28;20037;-77
2023/05/06 12:13:24;;;;;;;0.08;0.08;;;26.50;52.50;;;;;;5046842;28;20075;-75
2023/05/06 12:15:52;;;;;;;0.00;0.00;;;26.80;52.10;;;;;;5056667;28;20100;-77
2023/05/06 12:18:18;;;;;;;0.05;0.05;;;26.90;50.20;;;;;;5055676;28;20048;-76
2023/05/06 12:20:44;;;;;;;0.00;0.00;;;26.90;52.40;;;;;;5060010;28;20302;-77
2023/05/06 12:23:11;;;;;;;0.43;0.20;;;27.00;50.60;;;;;;5064293;28;20063;-78
2023/05/06 12:25:38;;;;;;;3.85;0.38;;;27.20;51.20;;;;;;5055264;28;20025;-77
2023/05/06 12:28:18;;;;;;;0.70;0.55;;;27.30;53.70;;;;;;5055169;28;20053;-77
2023/05/06 12:30:44;;;;;;;0.08;0.08;;;27.30;52.20;;;;;;5063416;28;20024;-76
2023/05/06 12:33:10;;;;;;;0.10;0.10;;;26.70;51.90;;;;;;5054364;28;20051;-78
2023/05/06 12:35:36;;;;;;;0.45;0.28;;;26.60;54.00;;;;;;5051405;28;20025;-76
2023/05/06 12:38:15;;;;;;;0.00;0.00;;;26.60;54.40;;;;;;5051849;28;20021;-76
2023/05/06 12:40:43;;;;;;;0.00;0.00;;;26.60;52.60;;;;;;5055319;28;20478;-76
2023/05/06 12:43:09;;;;;;;0.03;0.03;;;26.40;45.10;;;;;;5068804;28;20144;-76
2023/05/06 12:45:37;;;;;;;;;;;26.20;46.40;;;;;;5051373;28;20039;-76
2023/05/06 12:48:04;;;;;;;0.00;0.00;;;26.00;51.10;;;;;;5062237;28;19951;-77
2023/05/06 12:50:40;;;;;;;0.20;0.10;;;25.80;48.40;;;;;;5052457;28;20029;-76